Time;durP1;ratioP1;P1;durP2;ratioP2;P2;SDS_P1;SDS_P2;PMS_P1;PMS_P2;Temp;Humidity;BMP_temperature;BMP_pressure;BME280_temperature;BME280_humidity;BME280_pressure;Samples;Min_cycle;Max_cycle;Signal;HPM_P1;HPM_P2
2022/04/24 00:00:08;;;;;;;1999.90;999.90;;;7.50;99.90;;;;;;5111455;28;20459;-70
2022/04/24 00:02:35;;;;;;;1999.90;999.90;;;7.50;99.90;;;;;;5110245;28;20855;-68
2022/04/24 00:05:02;;;;;;;1999.90;999.90;;;7.40;99.90;;;;;;5110007;28;20504;-70
2022/04/24 00:07:29;;;;;;;1999.90;999.90;;;7.40;99.90;;;;;;5110836;28;20440;-70
2022/04/24 00:09:57;;;;;;;1999.90;999.90;;;7.30;99.90;;;;;;5110539;28;20472;-70
2022/04/24 00:12:24;;;;;;;1999.90;999.90;;;7.20;99.90;;;;;;5102872;28;20862;-70
2022/04/24 00:14:51;;;;;;;1999.90;999.90;;;7.10;99.90;;;;;;5111431;28;20487;-71
2022/04/24 00:17:20;;;;;;;1999.90;999.90;;;7.00;99.90;;;;;;5112429;28;20469;-70
2022/04/24 00:19:47;;;;;;;1999.90;999.90;;;7.00;99.90;;;;;;5111397;28;20459;-70
2022/04/24 00:22:14;;;;;;;1999.90;999.90;;;7.00;99.90;;;;;;5111269;28;20479;-68
2022/04/24 00:24:40;;;;;;;1999.90;999.90;;;6.90;99.90;;;;;;5110822;28;20467;-70
2022/04/24 00:27:09;;;;;;;1999.90;999.90;;;6.80;99.90;;;;;;5111843;28;20456;-70
2022/04/24 00:29:36;;;;;;;1999.90;999.90;;;6.80;99.90;;;;;;5112065;28;20447;-70
2022/04/24 00:32:03;;;;;;;1999.90;999.90;;;6.70;99.90;;;;;;5111676;28;20525;-69
2022/04/24 00:34:30;;;;;;;1999.90;999.90;;;6.70;99.90;;;;;;5111305;28;20487;-70
2022/04/24 00:36:57;;;;;;;1999.90;999.90;;;6.70;99.90;;;;;;5112481;28;20451;-70
2022/04/24 00:39:23;;;;;;;1999.90;999.90;;;6.70;99.90;;;;;;5111949;28;20459;-70
2022/04/24 00:41:51;;;;;;;1999.90;999.90;;;6.70;99.90;;;;;;5112867;28;20479;-69
2022/04/24 00:44:20;;;;;;;1999.90;999.90;;;6.50;99.90;;;;;;5113380;28;20488;-69
2022/04/24 00:46:52;;;;;;;1999.90;999.90;;;6.50;99.90;;;;;;5113402;28;21050;-69
2022/04/24 00:49:19;;;;;;;1999.90;999.90;;;6.60;99.90;;;;;;5111723;28;20881;-70
2022/04/24 00:51:46;;;;;;;1999.90;999.90;;;6.60;99.90;;;;;;5111845;28;20471;-69
2022/04/24 00:54:13;;;;;;;1999.90;999.90;;;6.50;99.90;;;;;;5111207;28;20611;-70
2022/04/24 00:56:41;;;;;;;1999.90;999.90;;;6.50;99.90;;;;;;5112281;28;20439;-69
2022/04/24 00:59:09;;;;;;;1999.90;999.90;;;6.50;99.90;;;;;;5111922;28;20467;-70
2022/04/24 01:01:38;;;;;;;1999.90;999.90;;;6.50;99.90;;;;;;5112267;28;20516;-69
2022/04/24 01:04:07;;;;;;;1999.90;999.90;;;6.40;99.90;;;;;;5116594;28;20440;-70
2022/04/24 01:06:36;;;;;;;1999.90;999.90;;;6.40;99.90;;;;;;5115767;28;20956;-70
2022/04/24 01:09:14;;;;;;;1999.90;999.90;;;6.30;99.90;;;;;;5117597;28;20560;-70
2022/04/24 01:11:41;;;;;;;1999.90;999.90;;;6.20;99.90;;;;;;5115238;28;20462;-70
2022/04/24 01:14:09;;;;;;;1999.90;999.90;;;6.20;99.90;;;;;;5114439;28;20520;-70
2022/04/24 01:16:37;;;;;;;1999.90;999.90;;;6.10;99.90;;;;;;5114851;28;20463;-70
2022/04/24 01:19:05;;;;;;;1999.90;999.90;;;6.20;99.90;;;;;;5116393;28;20474;-68
2022/04/24 01:21:33;;;;;;;1999.90;999.90;;;6.20;99.90;;;;;;5116906;28;20439;-69
2022/04/24 01:24:00;;;;;;;1999.90;999.90;;;6.20;99.90;;;;;;5116909;28;20464;-70
2022/04/24 01:26:27;;;;;;;1999.90;999.90;;;6.20;99.90;;;;;;5118027;28;20473;-70
2022/04/24 01:28:53;;;;;;;1999.90;999.90;;;6.10;99.90;;;;;;5116994;28;20471;-70
2022/04/24 01:31:20;;;;;;;1999.90;999.90;;;6.10;99.90;;;;;;5118216;28;21034;-70
2022/04/24 01:33:47;;;;;;;1999.90;999.90;;;6.10;99.90;;;;;;5116111;28;20528;-70
2022/04/24 01:36:14;;;;;;;1999.90;999.90;;;6.10;99.90;;;;;;5117127;28;20477;-69
2022/04/24 01:38:42;;;;;;;1999.90;999.90;;;6.00;99.90;;;;;;5115914;28;20889;-69
2022/04/24 01:41:09;;;;;;;1999.90;999.90;;;6.00;99.90;;;;;;5117763;28;20451;-70
2022/04/24 01:43:37;;;;;;;1999.90;999.90;;;6.00;99.90;;;;;;5115169;28;20495;-70
2022/04/24 01:46:04;;;;;;;1999.90;999.90;;;6.00;99.90;;;;;;5117428;28;20496;-70
2022/04/24 01:48:32;;;;;;;1999.90;999.90;;;6.10;99.90;;;;;;5115723;28;20455;-71
2022/04/24 01:50:58;;;;;;;1999.90;999.90;;;6.10;99.90;;;;;;5117134;28;21057;-71
2022/04/24 01:53:25;;;;;;;1999.90;999.90;;;6.00;99.90;;;;;;5115214;28;21046;-69
2022/04/24 01:55:53;;;;;;;1999.90;999.90;;;5.90;99.90;;;;;;5116878;28;20553;-70
2022/04/24 01:58:20;;;;;;;1999.90;999.90;;;6.00;99.90;;;;;;5116251;28;20525;-68
2022/04/24 02:00:46;;;;;;;1999.90;999.90;;;6.20;99.90;;;;;;5117872;28;20439;-70
2022/04/24 02:03:13;;;;;;;1999.90;999.90;;;6.30;99.90;;;;;;5114455;28;21047;-70
2022/04/24 02:05:40;;;;;;;1999.90;999.90;;;6.20;99.90;;;;;;5116576;28;20448;-68
2022/04/24 02:08:07;;;;;;;1999.90;999.90;;;6.10;99.90;;;;;;5115609;28;20447;-70
2022/04/24 02:10:33;;;;;;;1999.90;999.90;;;6.10;99.90;;;;;;5116660;28;20448;-70
2022/04/24 02:13:01;;;;;;;1999.90;999.90;;;6.10;99.90;;;;;;5115373;28;21000;-70
2022/04/24 02:15:28;;;;;;;1999.90;999.90;;;6.00;99.90;;;;;;5117889;28;21078;-70
2022/04/24 02:17:55;;;;;;;1999.90;999.90;;;5.90;99.90;;;;;;5116689;28;20823;-70
2022/04/24 02:20:22;;;;;;;1999.90;999.90;;;5.90;99.90;;;;;;5115076;28;20887;-70
2022/04/24 02:22:49;;;;;;;1999.90;999.90;;;5.80;99.90;;;;;;5115401;28;20509;-70
2022/04/24 02:25:17;;;;;;;1999.90;999.90;;;5.80;99.90;;;;;;5116538;28;20451;-70
2022/04/24 02:27:44;;;;;;;1999.90;999.90;;;5.80;99.90;;;;;;5116382;28;20464;-68
2022/04/24 02:30:12;;;;;;;1999.90;999.90;;;5.90;99.90;;;;;;5116670;28;20447;-69
2022/04/24 02:32:38;;;;;;;1999.90;999.90;;;5.60;99.90;;;;;;5115838;28;20476;-70
2022/04/24 02:35:06;;;;;;;1999.90;999.90;;;5.70;99.90;;;;;;5116227;28;20524;-70
2022/04/24 02:37:33;;;;;;;1999.90;999.90;;;5.60;99.90;;;;;;5115800;28;20510;-70
2022/04/24 02:40:00;;;;;;;1999.90;999.90;;;5.60;99.90;;;;;;5114431;28;20526;-70
2022/04/24 02:42:26;;;;;;;1999.90;999.90;;;5.30;99.90;;;;;;5113005;28;20495;-70
2022/04/24 02:44:53;;;;;;;1999.90;999.90;;;5.30;99.90;;;;;;5116929;28;21110;-70
2022/04/24 02:47:21;;;;;;;1999.90;999.90;;;5.30;99.90;;;;;;5116410;28;20455;-70
2022/04/24 02:49:48;;;;;;;1999.90;999.90;;;5.30;99.90;;;;;;5116372;28;20498;-70
2022/04/24 02:52:14;;;;;;;1999.90;999.90;;;5.30;99.90;;;;;;5114551;28;20556;-70
2022/04/24 02:54:41;;;;;;;1999.90;999.90;;;5.30;99.90;;;;;;5109256;28;20507;-70
2022/04/24 02:57:07;;;;;;;1999.90;999.90;;;5.20;99.90;;;;;;5114673;28;20516;-70
2022/04/24 02:59:34;;;;;;;1999.90;999.90;;;5.20;99.90;;;;;;5114676;28;20516;-69
2022/04/24 03:02:01;;;;;;;1999.90;999.90;;;5.10;99.90;;;;;;5114867;28;20509;-69
2022/04/24 03:04:29;;;;;;;1999.90;999.90;;;5.00;99.90;;;;;;5112383;28;20540;-70
2022/04/24 03:06:55;;;;;;;1999.90;999.90;;;4.90;99.90;;;;;;5112806;28;20447;-70
2022/04/24 03:09:22;;;;;;;1999.90;999.90;;;4.90;99.90;;;;;;5111635;28;20521;-70
2022/04/24 03:11:49;;;;;;;1999.90;999.90;;;4.90;99.90;;;;;;5112594;28;21032;-70
2022/04/24 03:14:15;;;;;;;1999.90;999.90;;;4.90;99.90;;;;;;5113057;28;20467;-70
2022/04/24 03:16:42;;;;;;;1999.90;999.90;;;4.90;99.90;;;;;;5113668;28;20509;-70
2022/04/24 03:19:08;;;;;;;1999.90;999.90;;;4.90;99.90;;;;;;5111328;28;20952;-70
2022/04/24 03:21:36;;;;;;;1999.90;999.90;;;4.70;99.90;;;;;;5111875;28;20510;-69
2022/04/24 03:24:03;;;;;;;1999.90;999.90;;;4.70;99.90;;;;;;5110395;28;20517;-69
2022/04/24 03:26:30;;;;;;;1999.90;999.90;;;4.60;99.90;;;;;;5112016;28;20493;-70
2022/04/24 03:28:57;;;;;;;1999.90;999.90;;;4.60;99.90;;;;;;5111604;28;20463;-70
2022/04/24 03:31:24;;;;;;;1999.90;999.90;;;4.60;99.90;;;;;;5113785;28;20447;-69
2022/04/24 03:33:52;;;;;;;1999.90;999.90;;;4.60;99.90;;;;;;5111591;28;20464;-70
2022/04/24 03:36:18;;;;;;;1999.90;999.90;;;4.70;99.90;;;;;;5113124;28;20475;-70
2022/04/24 03:38:47;;;;;;;1999.90;999.90;;;4.80;99.90;;;;;;5112543;28;20504;-69
2022/04/24 03:41:13;;;;;;;1999.90;999.90;;;4.80;99.90;;;;;;5114263;28;20448;-69
2022/04/24 03:43:40;;;;;;;1999.90;999.90;;;4.90;99.90;;;;;;5111339;28;21100;-69
2022/04/24 03:46:06;;;;;;;1999.90;999.90;;;4.90;99.90;;;;;;5112854;28;20444;-70
2022/04/24 03:48:34;;;;;;;1999.90;999.90;;;5.10;99.90;;;;;;5111626;28;20992;-70
2022/04/24 03:51:01;;;;;;;1999.90;999.90;;;5.20;99.90;;;;;;5112529;28;20459;-70
2022/04/24 03:53:28;;;;;;;1999.90;999.90;;;5.10;99.90;;;;;;5098176;28;20483;-70
2022/04/24 03:55:56;;;;;;;1999.90;999.90;;;5.20;99.90;;;;;;5112630;28;20624;-68
2022/04/24 03:58:22;;;;;;;1999.90;999.90;;;5.20;99.90;;;;;;5111644;28;20471;-67
2022/04/24 04:00:49;;;;;;;1999.90;999.90;;;5.20;99.90;;;;;;5113621;28;20440;-70
2022/04/24 04:03:16;;;;;;;1999.90;999.90;;;5.20;99.90;;;;;;5110112;28;20483;-70
2022/04/24 04:05:43;;;;;;;1999.90;999.90;;;5.20;99.90;;;;;;5112086;28;20443;-70
2022/04/24 04:08:09;;;;;;;1999.90;999.90;;;5.50;99.90;;;;;;5111323;28;20459;-70
2022/04/24 04:10:36;;;;;;;1999.90;999.90;;;5.30;99.90;;;;;;5112811;28;20431;-71
2022/04/24 04:13:07;;;;;;;1999.90;999.90;;;5.30;99.90;;;;;;5111590;28;20563;-70
2022/04/24 04:15:35;;;;;;;1999.90;999.90;;;5.30;99.90;;;;;;5113855;28;20487;-70
2022/04/24 04:18:02;;;;;;;1999.90;999.90;;;5.30;99.90;;;;;;5110851;28;20509;-70
2022/04/24 04:20:28;;;;;;;1999.90;999.90;;;5.30;99.90;;;;;;5106386;28;20452;-70
2022/04/24 04:22:55;;;;;;;1999.90;999.90;;;5.20;99.90;;;;;;5111427;28;20528;-70
2022/04/24 04:25:23;;;;;;;1999.90;999.90;;;5.20;99.90;;;;;;5111356;28;20862;-70
2022/04/24 04:27:50;;;;;;;1999.90;999.90;;;5.20;99.90;;;;;;5111897;28;20505;-70
2022/04/24 04:30:18;;;;;;;1999.90;999.90;;;5.20;99.90;;;;;;5112998;28;20473;-70
2022/04/24 04:32:45;;;;;;;1999.90;999.90;;;5.20;99.90;;;;;;5111304;28;20667;-70
2022/04/24 04:35:12;;;;;;;1999.90;999.90;;;5.30;99.90;;;;;;5111605;28;20528;-70
2022/04/24 04:37:40;;;;;;;1999.90;999.90;;;5.20;99.90;;;;;;5111384;28;20463;-70
2022/04/24 04:40:08;;;;;;;1999.90;999.90;;;5.00;99.90;;;;;;5111066;28;20548;-70
2022/04/24 04:42:35;;;;;;;1999.90;999.90;;;5.00;99.90;;;;;;5110244;28;20482;-69
2022/04/24 04:45:03;;;;;;;1999.90;999.90;;;5.10;99.90;;;;;;5111347;28;20497;-70
2022/04/24 04:47:32;;;;;;;1999.90;999.90;;;5.20;99.90;;;;;;5112971;28;20885;-70
2022/04/24 04:49:59;;;;;;;1999.90;999.90;;;5.30;99.90;;;;;;5115245;28;20528;-70
2022/04/24 04:52:25;;;;;;;1999.90;999.90;;;5.40;99.90;;;;;;5112914;28;21014;-71
2022/04/24 04:54:52;;;;;;;1999.90;999.90;;;5.40;99.90;;;;;;5114330;28;20439;-70
2022/04/24 04:57:18;;;;;;;1999.90;999.90;;;5.40;99.90;;;;;;5114080;28;20711;-70
2022/04/24 04:59:45;;;;;;;1999.90;999.90;;;5.40;99.90;;;;;;5114145;28;20436;-70
2022/04/24 05:02:12;;;;;;;1999.90;999.90;;;5.30;99.90;;;;;;5113447;28;20483;-70
2022/04/24 05:04:43;;;;;;;1999.90;999.90;;;5.40;99.90;;;;;;5114472;28;20439;-70
2022/04/24 05:07:10;;;;;;;1999.90;999.90;;;5.50;99.90;;;;;;5114154;28;20495;-70
2022/04/24 05:09:36;;;;;;;1999.90;999.90;;;5.60;99.90;;;;;;5114198;28;20530;-69
2022/04/24 05:12:04;;;;;;;1999.90;999.90;;;5.80;99.90;;;;;;5112706;28;21069;-70
2022/04/24 05:14:31;;;;;;;1999.90;999.90;;;6.00;99.90;;;;;;5114131;28;20447;-70
2022/04/24 05:16:57;;;;;;;1999.90;999.90;;;6.20;99.90;;;;;;5113676;28;20906;-70
2022/04/24 05:19:25;;;;;;;1999.90;999.90;;;6.30;99.90;;;;;;5114495;28;20495;-71
2022/04/24 05:21:53;;;;;;;1999.90;999.90;;;6.50;99.90;;;;;;5111979;28;20494;-70
2022/04/24 05:24:19;;;;;;;1999.90;999.90;;;6.80;99.90;;;;;;5113091;28;20452;-70
2022/04/24 05:26:46;;;;;;;1999.90;999.90;;;7.00;99.90;;;;;;5111850;28;20455;-70
2022/04/24 05:29:14;;;;;;;1999.90;999.90;;;7.10;99.90;;;;;;5112064;28;20477;-70
2022/04/24 05:31:41;;;;;;;1999.90;999.90;;;7.20;99.90;;;;;;5110200;28;20883;-70
2022/04/24 05:34:07;;;;;;;1999.90;999.90;;;7.40;99.90;;;;;;5112370;28;20447;-70
2022/04/24 05:36:34;;;;;;;1999.90;999.90;;;7.50;99.90;;;;;;5111096;28;20532;-70
2022/04/24 05:39:02;;;;;;;1999.90;999.90;;;7.70;99.90;;;;;;5112314;28;20443;-70
2022/04/24 05:43:57;;;;;;;1999.90;999.90;;;7.90;99.90;;;;;;5105982;22;20499;-67
2022/04/24 05:46:24;;;;;;;1999.90;999.90;;;7.90;99.90;;;;;;5090408;28;20453;-67
2022/04/24 05:48:51;;;;;;;1999.90;999.90;;;8.10;99.90;;;;;;5092861;28;20479;-67
2022/04/24 05:51:17;;;;;;;1999.90;999.90;;;7.90;99.90;;;;;;5094634;28;21007;-67
2022/04/24 05:53:44;;;;;;;1999.90;999.90;;;8.10;99.90;;;;;;5112569;28;20475;-67
2022/04/24 05:56:12;;;;;;;1999.90;999.90;;;8.20;99.90;;;;;;5114645;28;20532;-67
2022/04/24 05:58:39;;;;;;;1999.90;999.90;;;8.40;99.90;;;;;;5114443;28;20472;-66
2022/04/24 06:01:05;;;;;;;1999.90;999.90;;;8.40;99.90;;;;;;5115081;28;20937;-67
2022/04/24 06:03:32;;;;;;;1999.90;999.90;;;8.40;99.90;;;;;;5113884;28;20488;-67
2022/04/24 06:05:59;;;;;;;1999.90;999.90;;;8.40;99.90;;;;;;5114319;28;20443;-65
2022/04/24 06:08:26;;;;;;;1999.90;999.90;;;8.40;99.90;;;;;;5114211;28;20518;-67
2022/04/24 06:10:52;;;;;;;1999.90;999.90;;;8.70;99.90;;;;;;5115430;28;20488;-67
2022/04/24 06:13:22;;;;;;;1999.90;999.90;;;8.80;99.90;;;;;;5113697;28;20484;-67
2022/04/24 06:15:49;;;;;;;1999.90;999.90;;;9.00;99.90;;;;;;5115231;28;20476;-67
2022/04/24 06:18:16;;;;;;;1999.90;999.90;;;8.90;99.90;;;;;;5114039;28;20536;-67
2022/04/24 06:20:43;;;;;;;1999.90;999.90;;;9.00;99.90;;;;;;5113016;28;20986;-66
2022/04/24 06:23:10;;;;;;;1999.90;999.90;;;9.00;99.90;;;;;;5113169;28;20858;-67
2022/04/24 06:25:38;;;;;;;1999.90;999.90;;;9.20;99.90;;;;;;5113792;28;20868;-67
2022/04/24 06:28:05;;;;;;;1999.90;999.90;;;9.40;99.90;;;;;;5114886;28;20820;-67
2022/04/24 06:30:35;;;;;;;1999.90;999.90;;;9.70;99.90;;;;;;5114221;28;20455;-68
2022/04/24 06:33:01;;;;;;;1999.90;999.90;;;9.80;99.90;;;;;;5113729;28;20474;-67
2022/04/24 06:35:28;;;;;;;1999.90;999.90;;;9.70;99.90;;;;;;5113366;28;20981;-67
2022/04/24 06:37:56;;;;;;;1999.90;999.90;;;9.60;99.90;;;;;;5113981;28;20914;-67
2022/04/24 06:40:24;;;;;;;1999.90;999.90;;;9.70;99.90;;;;;;5113465;28;20450;-68
2022/04/24 06:42:52;;;;;;;1999.90;999.90;;;9.60;99.90;;;;;;5113572;28;20467;-67
2022/04/24 06:45:25;;;;;;;1999.90;999.90;;;9.70;99.90;;;;;;5113050;28;20477;-67
2022/04/24 06:47:53;;;;;;;1999.90;999.90;;;9.40;99.90;;;;;;5109586;28;20456;-67
2022/04/24 06:50:22;;;;;;;1999.90;999.90;;;9.60;99.90;;;;;;5111834;28;20448;-67
2022/04/24 06:52:56;;;;;;;1999.90;999.90;;;9.80;99.90;;;;;;5112175;28;20536;-66
2022/04/24 06:55:23;;;;;;;1999.90;999.90;;;9.90;99.90;;;;;;5113182;28;20443;-66
2022/04/24 06:57:51;;;;;;;1999.90;999.90;;;10.10;99.90;;;;;;5113875;28;20482;-67
2022/04/24 07:00:18;;;;;;;1999.90;999.90;;;10.30;99.90;;;;;;5111022;28;20455;-67
2022/04/24 07:02:45;;;;;;;1999.90;999.90;;;10.20;99.90;;;;;;5113796;28;20529;-67
2022/04/24 07:05:13;;;;;;;1999.90;999.90;;;10.00;99.90;;;;;;5114190;28;20456;-67
2022/04/24 07:07:39;;;;;;;1999.90;999.90;;;9.90;99.90;;;;;;5120505;28;20436;-67
2022/04/24 07:10:07;;;;;;;1999.90;999.90;;;10.20;99.90;;;;;;5112395;28;20965;-67
2022/04/24 07:12:44;;;;;;;1999.90;999.90;;;10.10;99.90;;;;;;5113316;28;20467;-67
2022/04/24 07:15:11;;;;;;;1999.90;999.90;;;10.40;99.90;;;;;;5113168;28;20486;-68
2022/04/24 07:17:37;;;;;;;1999.90;999.90;;;10.50;99.90;;;;;;5113557;28;20480;-68
2022/04/24 07:20:05;;;;;;;1999.90;999.90;;;10.70;99.90;;;;;;5113010;28;20521;-67
2022/04/24 07:22:43;;;;;;;1999.90;999.90;;;10.80;99.90;;;;;;5113082;28;20460;-68
2022/04/24 07:25:10;;;;;;;1999.90;999.90;;;11.00;99.90;;;;;;5109579;28;20459;-67
2022/04/24 07:27:37;;;;;;;1999.90;999.90;;;11.00;99.90;;;;;;5113615;28;21013;-66
2022/04/24 07:30:04;;;;;;;1999.90;999.90;;;10.80;99.90;;;;;;5111467;28;20847;-67
2022/04/24 07:32:38;;;;;;;1999.90;999.90;;;10.80;99.90;;;;;;5113554;28;20524;-66
2022/04/24 07:35:06;;;;;;;1999.90;999.90;;;11.20;99.90;;;;;;5111771;28;20493;-65
2022/04/24 07:37:33;;;;;;;1999.90;999.90;;;11.40;99.90;;;;;;5113490;28;20536;-65
2022/04/24 07:40:01;;;;;;;1999.90;999.90;;;11.80;99.90;;;;;;5111305;27;20467;-66
2022/04/24 07:42:28;;;;;;;1999.90;999.90;;;12.10;99.90;;;;;;5111812;27;20499;-66
2022/04/24 07:44:54;;;;;;;1999.90;999.90;;;12.10;99.90;;;;;;5111647;27;20447;-66
2022/04/24 07:47:21;;;;;;;1999.90;999.90;;;12.30;99.90;;;;;;5112247;28;20452;-67
2022/04/24 07:49:47;;;;;;;1999.90;999.90;;;12.70;99.90;;;;;;5113166;28;20501;-65
2022/04/24 07:52:14;;;;;;;1999.90;999.90;;;12.90;99.90;;;;;;5112332;28;20475;-66
2022/04/24 07:54:41;;;;;;;1999.90;999.90;;;12.80;99.90;;;;;;5113140;28;20443;-66
2022/04/24 07:57:08;;;;;;;1999.90;999.90;;;12.90;99.90;;;;;;5110974;28;20516;-65
2022/04/24 07:59:35;;;;;;;1999.90;999.90;;;12.90;99.90;;;;;;5111877;28;20467;-65
2022/04/24 08:02:02;;;;;;;1999.90;999.90;;;12.90;99.90;;;;;;5112216;28;21047;-66
2022/04/24 08:04:29;;;;;;;1999.90;999.90;;;13.20;99.90;;;;;;5112800;28;20440;-65
2022/04/24 08:06:56;;;;;;;1999.90;999.90;;;13.50;99.90;;;;;;5112514;28;20933;-66
2022/04/24 08:09:22;;;;;;;1999.90;999.90;;;13.70;99.90;;;;;;5112372;28;20496;-66
2022/04/24 08:11:49;;;;;;;1999.90;999.90;;;13.70;99.90;;;;;;5111903;28;20447;-66
2022/04/24 08:14:19;;;;;;;1999.90;999.90;;;13.70;99.90;;;;;;5112731;28;20447;-66
2022/04/24 08:16:46;;;;;;;1999.90;999.90;;;13.40;99.90;;;;;;5112614;28;20468;-65
2022/04/24 08:19:13;;;;;;;1999.90;999.90;;;13.30;99.90;;;;;;5112886;28;20500;-66
2022/04/24 08:21:39;;;;;;;1999.90;999.90;;;13.20;99.90;;;;;;5111666;28;20448;-65
2022/04/24 08:24:06;;;;;;;1999.90;999.90;;;13.30;99.90;;;;;;5112019;28;20513;-65
2022/04/24 08:26:33;;;;;;;1999.90;999.90;;;13.20;99.90;;;;;;5112674;28;20440;-65
2022/04/24 08:29:00;;;;;;;1999.90;999.90;;;13.20;99.90;;;;;;5112205;28;20875;-66
2022/04/24 08:31:28;;;;;;;1999.90;999.90;;;13.30;99.90;;;;;;5112335;28;20447;-65
2022/04/24 08:33:57;;;;;;;1999.90;999.90;;;13.40;99.90;;;;;;5111848;28;20468;-67
2022/04/24 08:36:24;;;;;;;1999.90;999.90;;;13.50;99.90;;;;;;5112464;28;20898;-65
2022/04/24 08:38:51;;;;;;;1999.90;999.90;;;13.60;99.90;;;;;;5112889;28;20444;-65
2022/04/24 08:41:21;;;;;;;1999.90;999.90;;;13.60;99.90;;;;;;5111725;28;20516;-68
2022/04/24 08:43:47;;;;;;;1999.90;999.90;;;13.70;99.90;;;;;;5110009;28;20536;-66
2022/04/24 08:46:14;;;;;;;1999.90;999.90;;;14.30;99.90;;;;;;5111737;28;20469;-65
2022/04/24 08:48:45;;;;;;;1999.90;999.90;;;14.10;99.90;;;;;;5111205;28;20512;-65
2022/04/24 08:51:12;;;;;;;1999.90;999.90;;;14.20;99.90;;;;;;5111623;28;20500;-65
2022/04/24 08:53:39;;;;;;;1999.90;999.90;;;14.70;99.90;;;;;;5110600;28;20475;-66
2022/04/24 08:56:06;;;;;;;1999.90;999.90;;;14.30;99.90;;;;;;5111319;28;20497;-66
2022/04/24 08:58:33;;;;;;;1999.90;999.90;;;14.60;99.90;;;;;;5112011;28;21053;-64
2022/04/24 09:00:59;;;;;;;1999.90;999.90;;;14.60;99.90;;;;;;5112994;28;20447;-65
2022/04/24 09:03:26;;;;;;;1999.90;999.90;;;14.80;99.90;;;;;;5112107;28;20455;-66
2022/04/24 09:05:54;;;;;;;1999.90;999.90;;;15.20;99.90;;;;;;5112348;28;20509;-66
2022/04/24 09:08:25;;;;;;;1999.90;999.90;;;15.00;99.90;;;;;;5112103;28;20998;-65
2022/04/24 09:10:53;;;;;;;1999.90;999.90;;;15.40;99.90;;;;;;5112181;28;20451;-66
2022/04/24 09:13:30;;;;;;;1999.90;999.90;;;15.40;99.90;;;;;;5111731;28;20976;-66
2022/04/24 09:15:58;;;;;;;1999.90;999.90;;;16.00;99.90;;;;;;5111167;28;20519;-65
2022/04/24 09:18:38;;;;;;;1999.90;999.90;;;16.00;99.90;;;;;;5110443;28;20509;-66
2022/04/24 09:21:06;;;;;;;1999.90;999.90;;;15.80;99.90;;;;;;5111919;28;20455;-66
2022/04/24 09:23:37;;;;;;;1999.90;999.90;;;15.80;99.70;;;;;;5112452;28;20611;-67
2022/04/24 09:26:03;;;;;;;1999.90;999.90;;;15.70;99.90;;;;;;5114846;28;20459;-67
2022/04/24 09:28:37;;;;;;;1999.90;999.90;;;15.90;99.90;;;;;;5114070;27;20966;-67
2022/04/24 09:31:04;;;;;;;1999.90;999.90;;;16.40;99.90;;;;;;5111489;27;20530;-66
2022/04/24 09:33:36;;;;;;;1999.90;999.90;;;16.50;99.10;;;;;;5109563;27;20482;-67
2022/04/24 09:36:03;;;;;;;1999.90;999.90;;;16.30;99.40;;;;;;5111126;28;20590;-67
2022/04/24 09:38:33;;;;;;;1999.90;999.90;;;16.40;99.50;;;;;;5115522;28;20500;-67
2022/04/24 09:41:00;;;;;;;1999.90;999.90;;;16.80;99.70;;;;;;5096780;28;20872;-66
2022/04/24 09:43:28;;;;;;;1999.90;999.90;;;16.20;99.10;;;;;;5113422;28;20999;-67
2022/04/24 09:45:55;;;;;;;1999.90;999.90;;;16.20;99.90;;;;;;5114700;28;20463;-66
2022/04/24 09:48:23;;;;;;;1999.90;999.90;;;16.10;99.50;;;;;;5115509;28;20443;-67
2022/04/24 09:50:50;;;;;;;1999.90;999.90;;;15.80;99.90;;;;;;5113647;28;20470;-67
2022/04/24 09:53:19;;;;;;;1999.90;999.90;;;15.50;99.90;;;;;;5113891;27;20475;-66
2022/04/24 09:55:49;;;;;;;1999.90;999.90;;;15.40;99.90;;;;;;5113855;27;20978;-67
2022/04/24 09:58:16;;;;;;;1999.90;999.90;;;15.10;99.90;;;;;;5114560;28;20574;-67
2022/04/24 10:00:44;;;;;;;1999.90;999.90;;;15.50;99.90;;;;;;5115285;28;20488;-67
2022/04/24 10:03:14;;;;;;;1999.90;999.90;;;15.70;99.90;;;;;;5115146;28;20470;-66
2022/04/24 10:05:43;;;;;;;1999.90;999.90;;;15.60;99.90;;;;;;5112997;27;20463;-68
2022/04/24 10:08:10;;;;;;;1999.90;999.90;;;15.50;99.90;;;;;;5113736;27;21007;-67
2022/04/24 10:10:37;;;;;;;1999.90;999.90;;;15.80;99.90;;;;;;5114523;28;20520;-67
2022/04/24 10:13:07;;;;;;;1999.90;999.90;;;15.80;99.90;;;;;;5114113;28;20470;-67
2022/04/24 10:15:35;;;;;;;1999.90;999.90;;;15.80;99.90;;;;;;5111443;27;20842;-67
2022/04/24 10:18:29;;;;;;;1999.90;999.90;;;16.20;99.90;;;;;;5111419;27;20479;-67
2022/04/24 10:21:15;;;;;;;1999.90;999.90;;;16.30;99.60;;;;;;5112332;28;20464;-65
2022/04/24 10:23:42;;;;;;;1999.90;999.90;;;16.70;99.80;;;;;;5107642;28;20942;-64
2022/04/24 10:26:17;;;;;;;1999.90;999.90;;;16.70;99.30;;;;;;5113328;28;20521;-65
2022/04/24 10:28:46;;;;;;;1999.90;999.90;;;16.70;99.40;;;;;;5113831;28;20446;-65
2022/04/24 10:31:14;;;;;;;1999.90;999.90;;;16.80;99.30;;;;;;5112409;28;20463;-64
2022/04/24 10:33:51;;;;;;;1999.90;999.90;;;16.80;99.30;;;;;;5113638;28;20520;-65
2022/04/24 10:36:18;;;;;;;1999.90;999.90;;;16.80;99.30;;;;;;5111982;28;20459;-66
2022/04/24 10:38:50;;;;;;;1999.90;999.90;;;16.80;99.20;;;;;;5114519;28;20505;-66
2022/04/24 10:41:18;;;;;;;1999.90;999.90;;;16.90;99.10;;;;;;5112434;27;20459;-64
2022/04/24 10:43:49;;;;;;;1999.90;999.90;;;16.70;98.70;;;;;;5113741;28;20548;-65
2022/04/24 10:46:17;;;;;;;1999.90;999.90;;;16.80;98.60;;;;;;5112163;27;20547;-67
2022/04/24 10:48:46;;;;;;;1999.90;999.90;;;16.70;98.10;;;;;;5114249;28;20531;-66
2022/04/24 10:51:13;;;;;;;1999.90;999.90;;;16.70;99.30;;;;;;5113469;28;20471;-67
2022/04/24 10:53:50;;;;;;;1999.90;999.90;;;16.80;99.00;;;;;;5113703;28;20459;-66
2022/04/24 10:56:17;;;;;;;1999.90;999.90;;;17.30;99.60;;;;;;5113204;28;20447;-64
2022/04/24 10:58:44;;;;;;;1999.90;999.90;;;17.70;98.10;;;;;;5113298;28;20479;-64
2022/04/24 11:01:15;;;;;;;1999.90;999.90;;;17.60;95.90;;;;;;5114165;28;20496;-65
2022/04/24 11:03:42;;;;;;;1999.90;999.90;;;17.30;96.00;;;;;;5111717;28;21177;-67
2022/04/24 11:06:21;;;;;;;1999.90;999.90;;;17.20;96.60;;;;;;5112248;27;20512;-65
2022/04/24 11:08:48;;;;;;;1999.90;999.90;;;17.20;97.10;;;;;;5114091;28;20443;-67
2022/04/24 11:11:16;;;;;;;1999.90;999.90;;;17.60;97.20;;;;;;5113969;28;20444;-67
2022/04/24 11:13:43;;;;;;;1999.90;999.90;;;17.90;96.40;;;;;;5112303;28;20544;-65
2022/04/24 11:16:11;;;;;;;1999.90;999.90;;;17.90;96.20;;;;;;5112174;28;21005;-62
2022/04/24 11:18:45;;;;;;;1999.90;999.90;;;17.60;95.00;;;;;;5112698;28;20479;-67
2022/04/24 11:21:16;;;;;;;1999.90;999.90;;;17.10;95.20;;;;;;5111933;28;20471;-67
2022/04/24 11:23:43;;;;;;;1999.90;999.90;;;17.00;95.60;;;;;;5111525;28;20483;-67
2022/04/24 11:26:12;;;;;;;1999.90;999.90;;;17.60;96.20;;;;;;5111623;28;20886;-67
2022/04/24 11:28:40;;;;;;;1999.90;999.90;;;17.60;93.80;;;;;;5111246;28;20451;-65
2022/04/24 11:31:14;;;;;;;1999.90;999.90;;;18.00;95.10;;;;;;5110247;28;20455;-63
2022/04/24 11:33:53;;;;;;;1999.90;999.90;;;18.00;93.90;;;;;;5112092;28;20569;-66
2022/04/24 11:36:21;;;;;;;1999.90;999.90;;;17.70;95.20;;;;;;5110910;28;20503;-66
2022/04/24 11:38:49;;;;;;;1999.90;999.90;;;17.20;93.60;;;;;;5111994;28;20548;-67
2022/04/24 11:41:16;;;;;;;1999.90;999.90;;;16.90;94.10;;;;;;5110447;28;20531;-67
2022/04/24 11:43:43;;;;;;;1999.90;999.90;;;16.80;95.10;;;;;;5113532;22;20506;-69
2022/04/24 11:51:39;;;;;;;1999.90;999.90;;;16.40;95.60;;;;;;5067334;28;20491;-70
2022/04/24 11:54:07;;;;;;;1999.90;999.90;;;16.30;95.70;;;;;;5074835;28;20541;-70
2022/04/24 11:56:34;;;;;;;1999.90;999.90;;;16.10;95.70;;;;;;5073629;28;20468;-69
2022/04/24 11:59:16;;;;;;;1999.90;999.90;;;15.90;95.80;;;;;;5070031;28;20481;-69
2022/04/24 12:01:44;;;;;;;1999.90;999.90;;;15.70;95.80;;;;;;5069884;28;20876;-70
2022/04/24 12:04:18;;;;;;;1999.90;999.90;;;15.70;96.40;;;;;;5078333;28;20908;-69
2022/04/24 12:06:45;;;;;;;1999.90;999.90;;;15.60;97.50;;;;;;5071187;28;20462;-69
2022/04/24 12:09:12;;;;;;;1999.90;999.90;;;15.50;97.40;;;;;;5073937;28;20449;-70
2022/04/24 12:11:39;;;;;;;1999.90;999.90;;;15.40;98.00;;;;;;5071350;28;20945;-70
2022/04/24 12:14:08;;;;;;;1999.90;999.90;;;15.40;97.70;;;;;;5070915;28;20536;-70